Island Princess — ZCDG4 — position and weather

sailwx.info

Track history (hours):
 
Tides and Currents Weather Stations Pressure Air Temp Water Temp Dewpoint Dewpoint Depression Visibility Wind Speed Wind Dir Waves Ship Positions

Island Princess

Operator: Princess Cruises

Last reported at 2018-Sep-22 07:31 UTC. Time now 2018-Sep-22 07:51 UTC.
Position N 38°20' W 123°34'.

Type: Passenger vessel. MMSI: 310384000.

Date/timePositionNaut miles runAvg speedWind from/ knotsBaromVisibWave heightAir tempDewpointWater temp
2018-Sep-22 07:31N 38°20' W 123°34'1021.2
2018-Sep-22 07:04N 38°27' W 123°42'120.9
2018-Sep-22 07:01N 38°28' W 123°42'1020.8
2018-Sep-22 06:31N 38°36' W 123°51'920.6
2018-Sep-22 06:03N 38°43' W 123°58'120.6
2018-Sep-22 06:01N 38°44' W 123°59'1020.3
2018-Sep-22 05:30N 38°52' W 124°08'920.3
2018-Sep-22 05:03N 38°59' W 124°15'120.4
2018-Sep-22 05:01N 39°00' W 124°15'39 9.8
2018-Sep-22 00:58N 39°34' W 124°40'16218.0
2018-Sep-21 15:57N 42°15' W 125°09'1020.4
2018-Sep-21 15:28N 42°25' W 125°10'820.6
2018-Sep-21 15:03N 42°33' W 125°10'121.3
2018-Sep-21 15:00N 42°34' W 125°10'1121.4
2018-Sep-21 14:30N 42°45' W 125°09'2721.6
2018-Sep-21 13:15N 43°12' W 125°02'521.3
2018-Sep-21 13:00N 43°17' W 125°01'1121.3
2018-Sep-21 12:30N 43°27' W 124°58'921.0
2018-Sep-21 12:04N 43°36' W 124°56'121.1
2018-Sep-21 12:01N 43°37' W 124°56'1021.0
2018-Sep-21 11:30N 43°48' W 124°53'1021.1
2018-Sep-21 11:03N 43°57' W 124°51'121.1
2018-Sep-21 11:00N 43°58' W 124°51'1421.1
2018-Sep-21 10:22N 44°12' W 124°48'621.1
2018-Sep-21 10:03N 44°18' W 124°47'121.2
2018-Sep-21 10:00N 44°19' W 124°47'1121.2
2018-Sep-21 09:30N 44°30' W 124°44'921.1
2018-Sep-21 09:04N 44°39' W 124°41'121.1
2018-Sep-21 09:01N 44°40' W 124°41'1020.3
2018-Sep-21 08:30N 44°50' W 124°38'1021.2
2018-Sep-21 08:03N 44°59' W 124°35'121.3
2018-Sep-21 08:00N 45°00' W 124°35'1121.4
2018-Sep-21 07:30N 45°11' W 124°32'1121.1
2018-Sep-21 06:59N 45°21' W 124°29'1021.1
2018-Sep-21 06:31N 45°31' W 124°27'921.0
2018-Sep-21 06:04N 45°41' W 124°24'120.9
2018-Sep-21 06:00N 45°42' W 124°24'021.5
2018-Sep-21 06:00N 45°42' W 124°24'1020.6 150 / 101018.410.8 15.013.216.0
2018-Sep-21 05:30N 45°52' W 124°21'920.1
2018-Sep-21 05:03N 46°01' W 124°19'119.6
2018-Sep-21 05:00N 46°02' W 124°19'918.4
2018-Sep-21 04:30N 46°09' W 124°12'613.5
2018-Sep-21 04:03N 46°14' W 124°06'115.4
2018-Sep-21 04:00N 46°15' W 124°06'812.2
2018-Sep-21 03:19N 46°11' W 123°54'2 6.5
2018-Sep-21 03:03N 46°12' W 123°52'0 1.5
2018-Sep-21 03:01N 46°11' W 123°52'0 0.7
2018-Sep-21 02:26N 46°11' W 123°51'0 0.0
2018-Sep-21 02:02N 46°11' W 123°51'0 0.0
2018-Sep-21 01:59N 46°11' W 123°51'0 0.0
2018-Sep-21 01:30N 46°11' W 123°51'0 0.0
2018-Sep-21 01:02N 46°11' W 123°51'0 0.0
2018-Sep-21 00:59N 46°11' W 123°51'0 0.0
2018-Sep-21 00:29N 46°11' W 123°51'0 0.0
2018-Sep-21 00:02N 46°11' W 123°51'0 0.0
2018-Sep-20 23:59N 46°11' W 123°51'0 0.0
2018-Sep-20 23:29N 46°11' W 123°51'0 0.0
2018-Sep-20 23:02N 46°11' W 123°51'0 0.0
2018-Sep-20 22:56N 46°11' W 123°51'0 0.0
2018-Sep-20 22:29N 46°11' W 123°51'0 0.0
2018-Sep-20 22:02N 46°11' W 123°51'0 0.0
2018-Sep-20 21:59N 46°11' W 123°51'0 0.0
2018-Sep-20 21:29N 46°11' W 123°51'0 0.0
2018-Sep-20 21:02N 46°11' W 123°51'0 0.0
2018-Sep-20 20:59N 46°11' W 123°51'0 0.0
2018-Sep-20 20:29N 46°11' W 123°51'0 0.0
2018-Sep-20 20:02N 46°11' W 123°51'0 0.0
2018-Sep-20 19:56N 46°11' W 123°51'0 0.0
2018-Sep-20 19:29N 46°11' W 123°51'0 0.0
2018-Sep-20 19:02N 46°11' W 123°51'0 0.0
2018-Sep-20 18:59N 46°11' W 123°51'0 0.0
2018-Sep-20 18:29N 46°11' W 123°51'0 0.0
2018-Sep-20 18:03N 46°11' W 123°51'0 0.0
2018-Sep-20 18:00N 46°11' W 123°51'2 4.8
2018-Sep-20 17:30N 46°11' W 123°55'811.7
2018-Sep-20 16:48N 46°15' W 124°06'414.2
2018-Sep-20 16:30N 46°11' W 124°09'3 6.4
2018-Sep-20 16:03N 46°12' W 124°13'114.3
2018-Sep-20 16:00N 46°12' W 124°14'1020.8
2018-Sep-20 15:30N 46°20' W 124°24'1022.3
2018-Sep-20 15:03N 46°29' W 124°31'122.1
2018-Sep-20 15:00N 46°30' W 124°32'1422.5
2018-Sep-20 14:23N 46°42' W 124°42'822.4
2018-Sep-20 14:00N 46°50' W 124°47'1121.1
2018-Sep-20 13:30N 46°59' W 124°55'1020.6
2018-Sep-20 13:00N 47°08' W 125°02'1020.4
2018-Sep-20 12:30N 47°18' W 125°06'2920.7
2018-Sep-20 11:06N 47°46' W 125°17'322.3
2018-Sep-20 10:59N 47°49' W 125°18'1020.8
2018-Sep-20 10:29N 47°59' W 125°17'921.7
2018-Sep-20 10:03N 48°08' W 125°14'122.1
2018-Sep-20 09:59N 48°09' W 125°13'1121.8
2018-Sep-20 09:30N 48°20' W 125°10'920.9
2018-Sep-20 09:03N 48°28' W 125°04'122.1
2018-Sep-20 09:00N 48°29' W 125°03'1122.0
2018-Sep-20 08:30N 48°31' W 124°47'1022.0
2018-Sep-20 08:03N 48°27' W 124°33'121.7
2018-Sep-20 08:00N 48°27' W 124°31'1122.1
2018-Sep-20 07:30N 48°23' W 124°16'1122.3
2018-Sep-20 07:01N 48°18' W 124°01'020.5
2018-Sep-20 07:00N 48°18' W 124°00'2319.3
2018-Sep-20 05:50N 48°20' W 123°26'512.3
2018-Sep-20 05:27N 48°23' W 123°21'513.1
2018-Sep-20 05:03N 48°24' W 123°14'115.2
2018-Sep-20 05:00N 48°25' W 123°13'715.0
2018-Sep-20 04:31N 48°32' W 123°13'715.4
2018-Sep-20 04:04N 48°39' W 123°15'116.1
2018-Sep-20 04:01N 48°40' W 123°15'917.1
2018-Sep-20 03:30N 48°45' W 123°05'613.6
2018-Sep-20 03:03N 48°51' W 123°03'119.8
2018-Sep-20 03:00N 48°52' W 123°05'1120.7
2018-Sep-20 02:30N 48°59' W 123°17'818.4
2018-Sep-20 02:03N 49°05' W 123°24'119.4
2018-Sep-20 02:00N 49°06' W 123°23'1019.1
2018-Sep-20 01:30N 49°16' W 123°20'715.3
2018-Sep-20 01:03N 49°19' W 123°11'113.4
2018-Sep-20 01:00N 49°19' W 123°10'3 5.3
2018-Sep-20 00:29N 49°17' W 123°06'0 0.0
2018-Sep-20 00:02N 49°17' W 123°06'0 0.0
2018-Sep-19 23:59N 49°17' W 123°06'0 0.0
2018-Sep-19 23:29N 49°17' W 123°06'0 0.0
2018-Sep-19 23:02N 49°17' W 123°06'0 0.0
2018-Sep-19 22:59N 49°17' W 123°06'0 0.0
2018-Sep-19 22:29N 49°17' W 123°06'0 0.0
2018-Sep-19 22:02N 49°17' W 123°06'0 0.0
2018-Sep-19 21:59N 49°17' W 123°06'0 0.0
2018-Sep-19 21:29N 49°17' W 123°06'0 0.0
2018-Sep-19 21:02N 49°17' W 123°06'0 0.0
2018-Sep-19 20:59N 49°17' W 123°06'0 0.0
2018-Sep-19 20:29N 49°17' W 123°06'0 0.0
2018-Sep-19 20:02N 49°17' W 123°06'0 0.0
2018-Sep-19 19:59N 49°17' W 123°06'0 0.0
2018-Sep-19 19:29N 49°17' W 123°06'0 0.0
2018-Sep-19 19:02N 49°17' W 123°06'0 0.0
2018-Sep-19 18:59N 49°17' W 123°06'0 0.0
2018-Sep-19 18:29N 49°17' W 123°06'0 0.0
2018-Sep-19 18:02N 49°17' W 123°06'0 0.0
2018-Sep-19 17:59N 49°17' W 123°06'0 0.0
2018-Sep-19 17:29N 49°17' W 123°06'0 0.0
2018-Sep-19 17:02N 49°17' W 123°06'0 0.0
2018-Sep-19 16:59N 49°17' W 123°06'0 0.0
2018-Sep-19 16:29N 49°17' W 123°06'0 0.0
2018-Sep-19 15:59N 49°17' W 123°06'0 0.0
2018-Sep-19 15:29N 49°17' W 123°06'0 0.0
2018-Sep-19 15:02N 49°17' W 123°06'0 0.0
2018-Sep-19 14:59N 49°17' W 123°06'0 0.0
2018-Sep-19 14:00N 49°17' W 123°06'0 0.4
2018-Sep-19 13:30N 49°17' W 123°06'2 4.2
2018-Sep-19 13:03N 49°19' W 123°08'0 7.4
2018-Sep-19 13:00N 49°19' W 123°09'510.0
2018-Sep-19 12:29N 49°18' W 123°17'511.2
2018-Sep-19 12:03N 49°18' W 123°24'111.1
2018-Sep-19 11:59N 49°18' W 123°25'510.5
2018-Sep-19 11:30N 49°17' W 123°33'511.3
2018-Sep-19 11:03N 49°17' W 123°41'111.9
2018-Sep-19 11:00N 49°17' W 123°41'611.4
2018-Sep-19 10:29N 49°19' W 123°50'511.4
2018-Sep-19 10:03N 49°20' W 123°57'112.1
2018-Sep-19 10:00N 49°21' W 123°58'611.8
2018-Sep-19 09:30N 49°22' W 124°07'511.9
2018-Sep-19 09:03N 49°24' W 124°15'111.7
2018-Sep-19 09:00N 49°24' W 124°15'611.8
2018-Sep-19 08:30N 49°27' W 124°24'510.9
2018-Sep-19 08:03N 49°30' W 124°29'111.4
2018-Sep-19 07:59N 49°31' W 124°30'511.1
2018-Sep-19 07:30N 49°35' W 124°36'511.0
2018-Sep-19 07:03N 49°38' W 124°41'111.1
2018-Sep-19 07:00N 49°39' W 124°41'510.7
2018-Sep-19 06:30N 49°43' W 124°47'511.1
2018-Sep-19 06:03N 49°46' W 124°53'590.6
2018-Sep-19 06:00N 49°42' W 124°48'63488.9 230 / 51018.010.8 12.5 9.615.0
2018-Sep-19 05:59N 49°47' W 124°53'511.2
2018-Sep-19 05:30N 49°51' W 124°59'511.4
2018-Sep-19 05:03N 49°54' W 125°05'114.2
2018-Sep-19 05:00N 49°55' W 125°06'713.9
2018-Sep-19 04:30N 50°00' W 125°12'511.5
2018-Sep-19 04:03N 50°05' W 125°16'0 9.7
2018-Sep-19 04:00N 50°05' W 125°16'510.9
2018-Sep-19 03:30N 50°09' W 125°22'612.1
2018-Sep-19 03:02N 50°15' W 125°23'012.4
2018-Sep-19 03:00N 50°15' W 125°23'5 4.9
2018-Sep-19 02:00N 50°18' W 125°30'831.3 130 / 31018.427.0 13.0 9.112.0
2018-Sep-19 01:44N 50°22' W 125°40'414.8
2018-Sep-19 01:29N 50°22' W 125°46'4915.9
2018-Sep-18 22:25N 50°42' W 126°57'1917.9
2018-Sep-18 21:22N 50°49' W 127°24'517.4
2018-Sep-18 21:03N 50°51' W 127°32'217.3
2018-Sep-18 20:57N 50°52' W 127°34'817.1
2018-Sep-18 20:31N 50°57' W 127°44'511.5
2018-Sep-18 20:03N 50°60' W 127°50'213.2
2018-Sep-18 19:56N 51°01' W 127°52'613.4
2018-Sep-18 19:30N 51°04' W 127°60'612.5
2018-Sep-18 19:03N 51°08' W 128°07'112.5
2018-Sep-18 19:00N 51°08' W 128°08'714.0
2018-Sep-18 18:30N 51°12' W 128°17'614.0
2018-Sep-18 18:03N 51°16' W 128°25'113.5
2018-Sep-18 18:01N 51°16' W 128°26'714.2
2018-Sep-18 17:30N 51°20' W 128°35'817.2
2018-Sep-18 17:03N 51°25' W 128°46'116.8
2018-Sep-18 17:00N 51°25' W 128°47'816.8
2018-Sep-18 16:31N 51°31' W 128°56'817.2
2018-Sep-18 16:04N 51°37' W 129°03'117.9
2018-Sep-18 16:00N 51°38' W 129°04'917.9
2018-Sep-18 15:30N 51°46' W 129°12'817.2
2018-Sep-18 15:03N 51°52' W 129°19'116.7
2018-Sep-18 15:00N 51°53' W 129°20'917.0
2018-Sep-18 14:30N 51°60' W 129°27'917.3
2018-Sep-18 14:00N 52°07' W 129°35'8466.1
2018-Sep-18 14:00N 52°00' W 129°30'1633.1 080 / 291018.110.8 11.0 6.814.0
2018-Sep-18 13:30N 52°14' W 129°42'1117.5
2018-Sep-18 12:52N 52°24' W 129°51'5818.5
2018-Sep-18 09:43N 53°15' W 130°38'519.2
2018-Sep-18 09:27N 53°20' W 130°42'819.6
2018-Sep-18 09:03N 53°26' W 130°48'119.6
2018-Sep-18 09:01N 53°27' W 130°48'1019.7
2018-Sep-18 08:30N 53°37' W 130°52'919.9
2018-Sep-18 08:03N 53°46' W 130°54'119.8
2018-Sep-18 08:00N 53°47' W 130°55'1019.7
2018-Sep-18 07:30N 53°56' W 130°59'919.8
2018-Sep-18 07:03N 54°05' W 131°01'119.3
2018-Sep-18 07:00N 54°06' W 131°01'1019.4
2018-Sep-18 06:31N 54°16' W 131°01'919.3
2018-Sep-18 06:04N 54°23' W 131°10'119.5
2018-Sep-18 06:00N 54°24' W 131°11'1019.4
2018-Sep-18 05:30N 54°32' W 131°20'818.6
2018-Sep-18 05:03N 54°40' W 131°16'120.2
2018-Sep-18 05:00N 54°41' W 131°15'1019.8
2018-Sep-18 04:30N 54°50' W 131°09'2214.7
2018-Sep-18 03:00N 55°12' W 131°18'24 2.2 100 / 111020.210.8 12.0 7.913.0
2018-Sep-17 16:00N 55°24' W 131°54'14511.1 060 / 101018.310.8 12.5 6.213.0
2018-Sep-17 03:00N 57°36' W 133°42'41 3.4 010 / 51014.810.8 12.5 6.2 9.0
2018-Sep-16 15:00N 58°12' W 134°18'28 0.9 280 / 61015.910.8 5.5-1.310.0
2018-Sep-15 06:16N 58°09' W 135°11'2 9.1
2018-Sep-15 06:00N 58°09' W 135°16'5 9.5
2018-Sep-15 05:30N 58°11' W 135°23'4 9.8
2018-Sep-15 05:03N 58°13' W 135°31'0 9.8
2018-Sep-15 05:00N 58°14' W 135°31'510.2
2018-Sep-15 04:30N 58°16' W 135°40'410.0
2018-Sep-15 04:03N 58°18' W 135°47'0 9.5
2018-Sep-15 04:00N 58°19' W 135°48'5 9.4
2018-Sep-15 03:30N 58°20' W 135°57'510.8
2018-Sep-15 03:03N 58°25' W 135°59'110.2
2018-Sep-15 03:00N 58°25' W 135°59'713.2
2018-Sep-15 02:30N 58°32' W 136°03'818.7
2018-Sep-15 02:04N 58°39' W 136°09'119.9
2018-Sep-15 02:00N 58°40' W 136°10'1019.3
2018-Sep-15 01:30N 58°47' W 136°24'8 1.3
2018-Sep-14 19:28N 58°52' W 136°36'512.1
2018-Sep-14 19:03N 58°49' W 136°28'110.3
2018-Sep-14 18:59N 58°49' W 136°27'816.7
2018-Sep-14 18:30N 58°43' W 136°15'818.5
2018-Sep-14 18:03N 58°37' W 136°05'117.9
2018-Sep-14 18:00N 58°36' W 136°04'816.5
2018-Sep-14 17:30N 58°28' W 136°02'510.8
2018-Sep-14 17:03N 58°23' W 135°58'113.3
2018-Sep-14 17:00N 58°23' W 135°59'611.4
2018-Sep-14 16:31N 58°19' W 136°07'1811.9
2018-Sep-14 15:00N 58°06' W 136°30'5130.7 060 / 231016.910.8 10.0 5.6 9.0
2018-Sep-14 14:57N 58°09' W 136°37'38 9.7
2018-Sep-14 11:00N 58°18' W 137°48'5914.8 150 / 91015.210.8 13.011.115.0
2018-Sep-14 07:00N 58°54' W 139°18'3617.4 080 / 91014.210.8 13.0 6.815.0
2018-Sep-14 04:56N 59°20' W 140°06'2512.8
2018-Sep-14 03:00N 59°42' W 139°42'53 6.6 250 / 71014.227.0 16.0 2.810.0
2018-Sep-13 19:00N 59°30' W 141°24'6716.8 180 / 71013.510.8 13.5 7.416.0
2018-Sep-13 15:00N 59°24' W 143°36'   030 / 51014.527.0 14.012.216.0
Track history (hours):
 
Tides and Currents Weather Stations Pressure Air Temp Water Temp Dewpoint Dewpoint Depression Visibility Wind Speed Wind Dir Waves Ship Positions

Island Princess

Operator: Princess Cruises

Last reported at 2018-Sep-22 07:31 UTC. Time now 2018-Sep-22 07:51 UTC.
Position N 38°20' W 123°34'.

Type: Passenger vessel. MMSI: 310384000.

Date/timePositionNaut miles runAvg speedWind from/ knotsBaromVisibWave heightAir tempDewpointWater temp
2018-Sep-22 07:31N 38°20' W 123°34'1021.2
2018-Sep-22 07:04N 38°27' W 123°42'120.9
2018-Sep-22 07:01N 38°28' W 123°42'1020.8
2018-Sep-22 06:31N 38°36' W 123°51'920.6
2018-Sep-22 06:03N 38°43' W 123°58'120.6
2018-Sep-22 06:01N 38°44' W 123°59'1020.3
2018-Sep-22 05:30N 38°52' W 124°08'920.3
2018-Sep-22 05:03N 38°59' W 124°15'120.4
2018-Sep-22 05:01N 39°00' W 124°15'39 9.8
2018-Sep-22 00:58N 39°34' W 124°40'16218.0
2018-Sep-21 15:57N 42°15' W 125°09'1020.4
2018-Sep-21 15:28N 42°25' W 125°10'820.6
2018-Sep-21 15:03N 42°33' W 125°10'121.3
2018-Sep-21 15:00N 42°34' W 125°10'1121.4
2018-Sep-21 14:30N 42°45' W 125°09'2721.6
2018-Sep-21 13:15N 43°12' W 125°02'521.3
2018-Sep-21 13:00N 43°17' W 125°01'1121.3
2018-Sep-21 12:30N 43°27' W 124°58'921.0
2018-Sep-21 12:04N 43°36' W 124°56'121.1
2018-Sep-21 12:01N 43°37' W 124°56'1021.0
2018-Sep-21 11:30N 43°48' W 124°53'1021.1
2018-Sep-21 11:03N 43°57' W 124°51'121.1
2018-Sep-21 11:00N 43°58' W 124°51'1421.1
2018-Sep-21 10:22N 44°12' W 124°48'621.1
2018-Sep-21 10:03N 44°18' W 124°47'121.2
2018-Sep-21 10:00N 44°19' W 124°47'1121.2
2018-Sep-21 09:30N 44°30' W 124°44'921.1
2018-Sep-21 09:04N 44°39' W 124°41'121.1
2018-Sep-21 09:01N 44°40' W 124°41'1020.3
2018-Sep-21 08:30N 44°50' W 124°38'1021.2
2018-Sep-21 08:03N 44°59' W 124°35'121.3
2018-Sep-21 08:00N 45°00' W 124°35'1121.4
2018-Sep-21 07:30N 45°11' W 124°32'1121.1
2018-Sep-21 06:59N 45°21' W 124°29'1021.1
2018-Sep-21 06:31N 45°31' W 124°27'921.0
2018-Sep-21 06:04N 45°41' W 124°24'120.9
2018-Sep-21 06:00N 45°42' W 124°24'021.5
2018-Sep-21 06:00N 45°42' W 124°24'1020.6 150 / 101018.410.8 15.013.216.0
2018-Sep-21 05:30N 45°52' W 124°21'920.1
2018-Sep-21 05:03N 46°01' W 124°19'119.6
2018-Sep-21 05:00N 46°02' W 124°19'918.4
2018-Sep-21 04:30N 46°09' W 124°12'613.5
2018-Sep-21 04:03N 46°14' W 124°06'115.4
2018-Sep-21 04:00N 46°15' W 124°06'812.2
2018-Sep-21 03:19N 46°11' W 123°54'2 6.5
2018-Sep-21 03:03N 46°12' W 123°52'0 1.5
2018-Sep-21 03:01N 46°11' W 123°52'0 0.7
2018-Sep-21 02:26N 46°11' W 123°51'0 0.0
2018-Sep-21 02:02N 46°11' W 123°51'0 0.0
2018-Sep-21 01:59N 46°11' W 123°51'0 0.0
2018-Sep-21 01:30N 46°11' W 123°51'0 0.0
2018-Sep-21 01:02N 46°11' W 123°51'0 0.0
2018-Sep-21 00:59N 46°11' W 123°51'0 0.0
2018-Sep-21 00:29N 46°11' W 123°51'0 0.0
2018-Sep-21 00:02N 46°11' W 123°51'0 0.0
2018-Sep-20 23:59N 46°11' W 123°51'0 0.0
2018-Sep-20 23:29N 46°11' W 123°51'0 0.0
2018-Sep-20 23:02N 46°11' W 123°51'0 0.0
2018-Sep-20 22:56N 46°11' W 123°51'0 0.0
2018-Sep-20 22:29N 46°11' W 123°51'0 0.0
2018-Sep-20 22:02N 46°11' W 123°51'0 0.0
2018-Sep-20 21:59N 46°11' W 123°51'0 0.0
2018-Sep-20 21:29N 46°11' W 123°51'0 0.0
2018-Sep-20 21:02N 46°11' W 123°51'0 0.0
2018-Sep-20 20:59N 46°11' W 123°51'0 0.0
2018-Sep-20 20:29N 46°11' W 123°51'0 0.0
2018-Sep-20 20:02N 46°11' W 123°51'0 0.0
2018-Sep-20 19:56N 46°11' W 123°51'0 0.0
2018-Sep-20 19:29N 46°11' W 123°51'0 0.0
2018-Sep-20 19:02N 46°11' W 123°51'0 0.0
2018-Sep-20 18:59N 46°11' W 123°51'0 0.0
2018-Sep-20 18:29N 46°11' W 123°51'0 0.0
2018-Sep-20 18:03N 46°11' W 123°51'0 0.0
2018-Sep-20 18:00N 46°11' W 123°51'2 4.8
2018-Sep-20 17:30N 46°11' W 123°55'811.7
2018-Sep-20 16:48N 46°15' W 124°06'414.2
2018-Sep-20 16:30N 46°11' W 124°09'3 6.4
2018-Sep-20 16:03N 46°12' W 124°13'114.3
2018-Sep-20 16:00N 46°12' W 124°14'1020.8
2018-Sep-20 15:30N 46°20' W 124°24'1022.3
2018-Sep-20 15:03N 46°29' W 124°31'122.1
2018-Sep-20 15:00N 46°30' W 124°32'1422.5
2018-Sep-20 14:23N 46°42' W 124°42'822.4
2018-Sep-20 14:00N 46°50' W 124°47'1121.1
2018-Sep-20 13:30N 46°59' W 124°55'1020.6
2018-Sep-20 13:00N 47°08' W 125°02'1020.4
2018-Sep-20 12:30N 47°18' W 125°06'2920.7
2018-Sep-20 11:06N 47°46' W 125°17'322.3
2018-Sep-20 10:59N 47°49' W 125°18'1020.8
2018-Sep-20 10:29N 47°59' W 125°17'921.7
2018-Sep-20 10:03N 48°08' W 125°14'122.1
2018-Sep-20 09:59N 48°09' W 125°13'1121.8
2018-Sep-20 09:30N 48°20' W 125°10'920.9
2018-Sep-20 09:03N 48°28' W 125°04'122.1
2018-Sep-20 09:00N 48°29' W 125°03'1122.0
2018-Sep-20 08:30N 48°31' W 124°47'1022.0
2018-Sep-20 08:03N 48°27' W 124°33'121.7
2018-Sep-20 08:00N 48°27' W 124°31'1122.1
2018-Sep-20 07:30N 48°23' W 124°16'1122.3
2018-Sep-20 07:01N 48°18' W 124°01'020.5
2018-Sep-20 07:00N 48°18' W 124°00'2319.3
2018-Sep-20 05:50N 48°20' W 123°26'512.3
2018-Sep-20 05:27N 48°23' W 123°21'513.1
2018-Sep-20 05:03N 48°24' W 123°14'115.2
2018-Sep-20 05:00N 48°25' W 123°13'715.0
2018-Sep-20 04:31N 48°32' W 123°13'715.4
2018-Sep-20 04:04N 48°39' W 123°15'116.1
2018-Sep-20 04:01N 48°40' W 123°15'917.1
2018-Sep-20 03:30N 48°45' W 123°05'613.6
2018-Sep-20 03:03N 48°51' W 123°03'119.8
2018-Sep-20 03:00N 48°52' W 123°05'1120.7
2018-Sep-20 02:30N 48°59' W 123°17'818.4
2018-Sep-20 02:03N 49°05' W 123°24'119.4
2018-Sep-20 02:00N 49°06' W 123°23'1019.1
2018-Sep-20 01:30N 49°16' W 123°20'715.3
2018-Sep-20 01:03N 49°19' W 123°11'113.4
2018-Sep-20 01:00N 49°19' W 123°10'3 5.3
2018-Sep-20 00:29N 49°17' W 123°06'0 0.0
2018-Sep-20 00:02N 49°17' W 123°06'0 0.0
2018-Sep-19 23:59N 49°17' W 123°06'0 0.0
2018-Sep-19 23:29N 49°17' W 123°06'0 0.0
2018-Sep-19 23:02N 49°17' W 123°06'0 0.0
2018-Sep-19 22:59N 49°17' W 123°06'0 0.0
2018-Sep-19 22:29N 49°17' W 123°06'0 0.0
2018-Sep-19 22:02N 49°17' W 123°06'0 0.0
2018-Sep-19 21:59N 49°17' W 123°06'0 0.0
2018-Sep-19 21:29N 49°17' W 123°06'0 0.0
2018-Sep-19 21:02N 49°17' W 123°06'0 0.0
2018-Sep-19 20:59N 49°17' W 123°06'0 0.0
2018-Sep-19 20:29N 49°17' W 123°06'0 0.0
2018-Sep-19 20:02N 49°17' W 123°06'0 0.0
2018-Sep-19 19:59N 49°17' W 123°06'0 0.0
2018-Sep-19 19:29N 49°17' W 123°06'0 0.0
2018-Sep-19 19:02N 49°17' W 123°06'0 0.0
2018-Sep-19 18:59N 49°17' W 123°06'0 0.0
2018-Sep-19 18:29N 49°17' W 123°06'0 0.0
2018-Sep-19 18:02N 49°17' W 123°06'0 0.0
2018-Sep-19 17:59N 49°17' W 123°06'0 0.0
2018-Sep-19 17:29N 49°17' W 123°06'0 0.0
2018-Sep-19 17:02N 49°17' W 123°06'0 0.0
2018-Sep-19 16:59N 49°17' W 123°06'0 0.0
2018-Sep-19 16:29N 49°17' W 123°06'0 0.0
2018-Sep-19 15:59N 49°17' W 123°06'0 0.0
2018-Sep-19 15:29N 49°17' W 123°06'0 0.0
2018-Sep-19 15:02N 49°17' W 123°06'0 0.0
2018-Sep-19 14:59N 49°17' W 123°06'0 0.0
2018-Sep-19 14:00N 49°17' W 123°06'0 0.4
2018-Sep-19 13:30N 49°17' W 123°06'2 4.2
2018-Sep-19 13:03N 49°19' W 123°08'0 7.4
2018-Sep-19 13:00N 49°19' W 123°09'510.0
2018-Sep-19 12:29N 49°18' W 123°17'511.2
2018-Sep-19 12:03N 49°18' W 123°24'111.1
2018-Sep-19 11:59N 49°18' W 123°25'510.5
2018-Sep-19 11:30N 49°17' W 123°33'511.3
2018-Sep-19 11:03N 49°17' W 123°41'111.9
2018-Sep-19 11:00N 49°17' W 123°41'611.4
2018-Sep-19 10:29N 49°19' W 123°50'511.4
2018-Sep-19 10:03N 49°20' W 123°57'112.1
2018-Sep-19 10:00N 49°21' W 123°58'611.8
2018-Sep-19 09:30N 49°22' W 124°07'511.9
2018-Sep-19 09:03N 49°24' W 124°15'111.7
2018-Sep-19 09:00N 49°24' W 124°15'611.8
2018-Sep-19 08:30N 49°27' W 124°24'510.9
2018-Sep-19 08:03N 49°30' W 124°29'111.4
2018-Sep-19 07:59N 49°31' W 124°30'511.1
2018-Sep-19 07:30N 49°35' W 124°36'511.0
2018-Sep-19 07:03N 49°38' W 124°41'111.1
2018-Sep-19 07:00N 49°39' W 124°41'510.7
2018-Sep-19 06:30N 49°43' W 124°47'511.1
2018-Sep-19 06:03N 49°46' W 124°53'590.6
2018-Sep-19 06:00N 49°42' W 124°48'63488.9 230 / 51018.010.8 12.5 9.615.0
2018-Sep-19 05:59N 49°47' W 124°53'511.2
2018-Sep-19 05:30N 49°51' W 124°59'511.4
2018-Sep-19 05:03N 49°54' W 125°05'114.2
2018-Sep-19 05:00N 49°55' W 125°06'713.9
2018-Sep-19 04:30N 50°00' W 125°12'511.5
2018-Sep-19 04:03N 50°05' W 125°16'0 9.7
2018-Sep-19 04:00N 50°05' W 125°16'510.9
2018-Sep-19 03:30N 50°09' W 125°22'612.1
2018-Sep-19 03:02N 50°15' W 125°23'012.4
2018-Sep-19 03:00N 50°15' W 125°23'5 4.9
2018-Sep-19 02:00N 50°18' W 125°30'831.3 130 / 31018.427.0 13.0 9.112.0
2018-Sep-19 01:44N 50°22' W 125°40'414.8
2018-Sep-19 01:29N 50°22' W 125°46'4915.9
2018-Sep-18 22:25N 50°42' W 126°57'1917.9
2018-Sep-18 21:22N 50°49' W 127°24'517.4
2018-Sep-18 21:03N 50°51' W 127°32'217.3
2018-Sep-18 20:57N 50°52' W 127°34'817.1
2018-Sep-18 20:31N 50°57' W 127°44'511.5
2018-Sep-18 20:03N 50°60' W 127°50'213.2
2018-Sep-18 19:56N 51°01' W 127°52'613.4
2018-Sep-18 19:30N 51°04' W 127°60'612.5
2018-Sep-18 19:03N 51°08' W 128°07'112.5
2018-Sep-18 19:00N 51°08' W 128°08'714.0
2018-Sep-18 18:30N 51°12' W 128°17'614.0
2018-Sep-18 18:03N 51°16' W 128°25'113.5
2018-Sep-18 18:01N 51°16' W 128°26'714.2
2018-Sep-18 17:30N 51°20' W 128°35'817.2
2018-Sep-18 17:03N 51°25' W 128°46'116.8
2018-Sep-18 17:00N 51°25' W 128°47'816.8
2018-Sep-18 16:31N 51°31' W 128°56'817.2
2018-Sep-18 16:04N 51°37' W 129°03'117.9
2018-Sep-18 16:00N 51°38' W 129°04'917.9
2018-Sep-18 15:30N 51°46' W 129°12'817.2
2018-Sep-18 15:03N 51°52' W 129°19'116.7
2018-Sep-18 15:00N 51°53' W 129°20'917.0
2018-Sep-18 14:30N 51°60' W 129°27'917.3
2018-Sep-18 14:00N 52°07' W 129°35'8466.1
2018-Sep-18 14:00N 52°00' W 129°30'1633.1 080 / 291018.110.8 11.0 6.814.0
2018-Sep-18 13:30N 52°14' W 129°42'1117.5
2018-Sep-18 12:52N 52°24' W 129°51'5818.5
2018-Sep-18 09:43N 53°15' W 130°38'519.2
2018-Sep-18 09:27N 53°20' W 130°42'819.6
2018-Sep-18 09:03N 53°26' W 130°48'119.6
2018-Sep-18 09:01N 53°27' W 130°48'1019.7
2018-Sep-18 08:30N 53°37' W 130°52'919.9
2018-Sep-18 08:03N 53°46' W 130°54'119.8
2018-Sep-18 08:00N 53°47' W 130°55'1019.7
2018-Sep-18 07:30N 53°56' W 130°59'919.8
2018-Sep-18 07:03N 54°05' W 131°01'119.3
2018-Sep-18 07:00N 54°06' W 131°01'1019.4
2018-Sep-18 06:31N 54°16' W 131°01'919.3
2018-Sep-18 06:04N 54°23' W 131°10'119.5
2018-Sep-18 06:00N 54°24' W 131°11'1019.4
2018-Sep-18 05:30N 54°32' W 131°20'818.6
2018-Sep-18 05:03N 54°40' W 131°16'120.2
2018-Sep-18 05:00N 54°41' W 131°15'1019.8
2018-Sep-18 04:30N 54°50' W 131°09'2214.7
2018-Sep-18 03:00N 55°12' W 131°18'24 2.2 100 / 111020.210.8 12.0 7.913.0
2018-Sep-17 16:00N 55°24' W 131°54'14511.1 060 / 101018.310.8 12.5 6.213.0
2018-Sep-17 03:00N 57°36' W 133°42'41 3.4 010 / 51014.810.8 12.5 6.2 9.0
2018-Sep-16 15:00N 58°12' W 134°18'28 0.9 280 / 61015.910.8 5.5-1.310.0
2018-Sep-15 06:16N 58°09' W 135°11'2 9.1
2018-Sep-15 06:00N 58°09' W 135°16'5 9.5
2018-Sep-15 05:30N 58°11' W 135°23'4 9.8
2018-Sep-15 05:03N 58°13' W 135°31'0 9.8
2018-Sep-15 05:00N 58°14' W 135°31'510.2
2018-Sep-15 04:30N 58°16' W 135°40'410.0
2018-Sep-15 04:03N 58°18' W 135°47'0 9.5
2018-Sep-15 04:00N 58°19' W 135°48'5 9.4
2018-Sep-15 03:30N 58°20' W 135°57'510.8
2018-Sep-15 03:03N 58°25' W 135°59'110.2
2018-Sep-15 03:00N 58°25' W 135°59'713.2
2018-Sep-15 02:30N 58°32' W 136°03'818.7
2018-Sep-15 02:04N 58°39' W 136°09'119.9
2018-Sep-15 02:00N 58°40' W 136°10'1019.3
2018-Sep-15 01:30N 58°47' W 136°24'8 1.3
2018-Sep-14 19:28N 58°52' W 136°36'512.1
2018-Sep-14 19:03N 58°49' W 136°28'110.3
2018-Sep-14 18:59N 58°49' W 136°27'816.7
2018-Sep-14 18:30N 58°43' W 136°15'818.5
2018-Sep-14 18:03N 58°37' W 136°05'117.9
2018-Sep-14 18:00N 58°36' W 136°04'816.5
2018-Sep-14 17:30N 58°28' W 136°02'510.8
2018-Sep-14 17:03N 58°23' W 135°58'113.3
2018-Sep-14 17:00N 58°23' W 135°59'611.4
2018-Sep-14 16:31N 58°19' W 136°07'1811.9
2018-Sep-14 15:00N 58°06' W 136°30'5130.7 060 / 231016.910.8 10.0 5.6 9.0
2018-Sep-14 14:57N 58°09' W 136°37'38 9.7
2018-Sep-14 11:00N 58°18' W 137°48'5914.8 150 / 91015.210.8 13.011.115.0
2018-Sep-14 07:00N 58°54' W 139°18'3617.4 080 / 91014.210.8 13.0 6.815.0
2018-Sep-14 04:56N 59°20' W 140°06'2512.8
2018-Sep-14 03:00N 59°42' W 139°42'53 6.6 250 / 71014.227.0 16.0 2.810.0
2018-Sep-13 19:00N 59°30' W 141°24'6716.8 180 / 71013.510.8 13.5 7.416.0
2018-Sep-13 15:00N 59°24' W 143°36'   030 / 51014.527.0 14.012.216.0

Dump ship's entire track history